Terminal Aerodrome Forecast
Issued by NWS

Home | Current Version | Previous Version | Text Only | Print | Product List | Glossary On
Versions: 1 2 3 4 5 6 7 8 9 10 11 12 13 14 15 16 17 18 19 20 21 22 23 24 25 26 27 28 29 30 31 32 33 34 35
000
FTUS45 KRIW 242300
TAFPNA
TAF
KPNA 242330Z 2500/2524 VRB15G25KT P6SM VCTS SCT035CB BKN050
     FM250200 VRB05KT P6SM VCSH SCT050
     FM250500 31007KT P6SM VCSH SCT020 BKN030
     FM250900 VRB05KT P6SM VCFG FEW020
     FM251400 32007KT P6SM BKN200
     FM252100 VRB06KT P6SM BKN070
      AMD LTD TO CLD VIS AND WIND=

USA.gov is the U.S. government's official web portal to all federal, state and local government web resources and services.